Time;durP1;ratioP1;P1;durP2;ratioP2;P2;SDS_P1;SDS_P2;PMS_P1;PMS_P2;Temp;Humidity;BMP_temperature;BMP_pressure;BME280_temperature;BME280_humidity;BME280_pressure;Samples;Min_cycle;Max_cycle;Signal;HPM_P1;HPM_P2
2023/08/21 00:00:05;;;;;;;;;;;22.10;71.40;;;;;;5096082;28;19920;-65
2023/08/21 00:02:30;;;;;;;;;;;22.10;71.40;;;;;;5095651;28;19920;-65
2023/08/21 00:04:56;;;;;;;;;;;22.10;71.40;;;;;;5129879;27;20014;-65
2023/08/21 00:07:21;;;;;;;;;;;22.10;71.40;;;;;;5095967;28;19927;-68
2023/08/21 00:09:47;;;;;;;;;;;22.10;71.40;;;;;;5096013;28;19920;-65
2023/08/21 00:12:12;;;;;;;;;;;22.10;71.40;;;;;;5095767;28;20387;-65
2023/08/21 00:14:38;;;;;;;;;;;22.10;71.40;;;;;;5092015;28;19925;-65
2023/08/21 00:17:03;;;;;;;;;;;22.10;72.10;;;;;;5092003;28;19920;-65
2023/08/21 00:19:29;;;;;;;;;;;22.10;71.40;;;;;;5092379;28;19970;-65
2023/08/21 00:21:55;;;;;;;;;;;22.10;71.30;;;;;;5092129;28;19920;-65
2023/08/21 00:24:20;;;;;;;;;;;22.10;71.30;;;;;;5092537;28;19920;-65
2023/08/21 00:26:46;;;;;;;;;;;22.00;71.30;;;;;;5093165;28;19931;-65
2023/08/21 00:29:12;;;;;;;;;;;22.00;71.30;;;;;;5092143;28;19927;-65
2023/08/21 00:31:37;;;;;;;;;;;22.00;71.30;;;;;;5092141;28;19920;-65
2023/08/21 00:34:03;;;;;;;;;;;22.00;71.30;;;;;;5091860;28;20347;-65
2023/08/21 00:36:28;;;;;;;;;;;22.00;71.30;;;;;;5091901;28;19924;-65
2023/08/21 00:38:54;;;;;;;;;;;22.00;71.30;;;;;;5091696;28;19920;-65
2023/08/21 00:41:19;;;;;;;;;;;22.00;71.30;;;;;;5092196;28;20023;-65
2023/08/21 00:43:45;;;;;;;;;;;22.00;71.30;;;;;;5091857;28;19927;-65
2023/08/21 00:46:10;;;;;;;;;;;22.00;71.30;;;;;;5091213;28;19920;-65
2023/08/21 00:48:36;;;;;;;;;;;22.00;71.30;;;;;;5091512;28;19947;-65
2023/08/21 00:51:02;;;;;;;;;;;22.00;71.30;;;;;;5091866;28;19981;-65
2023/08/21 00:53:27;;;;;;;;;;;22.00;71.30;;;;;;5091724;28;19927;-69
2023/08/21 00:55:53;;;;;;;;;;;22.00;71.30;;;;;;5091435;28;19924;-69
2023/08/21 00:58:19;;;;;;;;;;;22.00;71.30;;;;;;5091629;28;20022;-65
2023/08/21 01:00:45;;;;;;;;;;;21.90;71.20;;;;;;5091408;28;19996;-66
2023/08/21 01:03:11;;;;;;;;;;;21.90;71.20;;;;;;5092584;28;20424;-65
2023/08/21 01:05:36;;;;;;;;;;;21.90;71.20;;;;;;5091652;28;19920;-65
2023/08/21 01:08:05;;;;;;;;;;;21.90;71.20;;;;;;5091470;28;19920;-65
2023/08/21 01:10:51;;;;;;;;;;;21.90;71.30;;;;;;5092513;28;19927;-65
2023/08/21 01:13:23;;;;;;;;;;;21.90;71.20;;;;;;5091508;28;19924;-65
2023/08/21 01:15:50;;;;;;;;;;;21.90;71.20;;;;;;5091084;28;19924;-65
2023/08/21 01:18:16;;;;;;;;;;;21.90;71.30;;;;;;5091077;28;19924;-65
2023/08/21 01:20:42;;;;;;;;;;;21.90;71.30;;;;;;5091228;28;20022;-65
2023/08/21 01:23:07;;;;;;;;;;;21.90;71.30;;;;;;5091497;28;19919;-65
2023/08/21 01:25:33;;;;;;;;;;;21.90;71.20;;;;;;5091129;28;19924;-65
2023/08/21 01:27:58;;;;;;;;;;;21.90;71.20;;;;;;5091319;28;19924;-65
2023/08/21 01:30:25;;;;;;;;;;;21.80;71.20;;;;;;5091048;28;20375;-65
2023/08/21 01:33:07;;;;;;;;;;;21.80;71.20;;;;;;5091362;28;19924;-65
2023/08/21 01:35:34;;;;;;;;;;;21.80;71.10;;;;;;5092409;28;19932;-65
2023/08/21 01:38:00;;;;;;;;;;;21.80;71.10;;;;;;5074182;28;19973;-65
2023/08/21 01:40:25;;;;;;;;;;;21.80;71.10;;;;;;5092167;28;20066;-65
2023/08/21 01:42:52;;;;;;;;;;;21.80;71.10;;;;;;5092163;28;20367;-65
2023/08/21 01:45:18;;;;;;;;;;;21.80;71.10;;;;;;5092202;28;20016;-65
2023/08/21 01:47:43;;;;;;;;;;;21.80;71.10;;;;;;5090951;28;19989;-65
2023/08/21 01:50:09;;;;;;;;;;;21.70;71.00;;;;;;5091128;28;19920;-65
2023/08/21 01:52:34;;;;;;;;;;;21.80;71.10;;;;;;5090921;28;19951;-65
2023/08/21 01:55:00;;;;;;;;;;;21.80;71.10;;;;;;5091907;28;19924;-65
2023/08/21 01:57:25;;;;;;;;;;;21.70;71.00;;;;;;5092373;28;19928;-65
2023/08/21 01:59:51;;;;;;;;;;;21.70;71.00;;;;;;5094720;28;19927;-65
2023/08/21 02:02:16;;;;;;;;;;;21.70;71.00;;;;;;5094978;28;19920;-65
2023/08/21 02:04:42;;;;;;;;;;;21.70;71.00;;;;;;5128870;27;19955;-65
2023/08/21 02:07:07;;;;;;;;;;;21.70;71.00;;;;;;5094853;28;19920;-65
2023/08/21 02:09:33;;;;;;;;;;;21.70;71.00;;;;;;5094683;28;19921;-65
2023/08/21 02:11:58;;;;;;;;;;;21.70;71.00;;;;;;5095758;28;19923;-65
2023/08/21 02:14:24;;;;;;;;;;;21.70;71.00;;;;;;5094266;28;19956;-69
2023/08/21 02:16:49;;;;;;;;;;;21.70;70.90;;;;;;5095617;28;19924;-65
2023/08/21 02:19:15;;;;;;;;;;;21.70;70.90;;;;;;5094630;28;19920;-65
2023/08/21 02:21:40;;;;;;;;;;;21.70;70.90;;;;;;5095641;28;19927;-65
2023/08/21 02:24:06;;;;;;;;;;;21.70;70.90;;;;;;5094649;28;20011;-65
2023/08/21 02:26:31;;;;;;;;;;;21.70;70.90;;;;;;5095434;28;19920;-65
2023/08/21 02:28:57;;;;;;;;;;;21.70;70.90;;;;;;5095687;28;19924;-65
2023/08/21 02:31:23;;;;;;;;;;;21.70;70.90;;;;;;5094351;28;19920;-65
2023/08/21 02:33:49;;;;;;;;;;;21.60;70.90;;;;;;5094158;28;19920;-65
2023/08/21 02:36:15;;;;;;;;;;;21.70;70.90;;;;;;5094001;28;20393;-65
2023/08/21 02:38:41;;;;;;;;;;;21.60;70.80;;;;;;5095311;28;20007;-65
2023/08/21 02:41:07;;;;;;;;;;;21.60;70.80;;;;;;5128329;27;19927;-65
2023/08/21 02:43:33;;;;;;;;;;;21.60;70.80;;;;;;5095150;28;19942;-65
2023/08/21 02:45:58;;;;;;;;;;;21.60;70.80;;;;;;5094059;28;20375;-65
2023/08/21 02:48:24;;;;;;;;;;;21.60;70.80;;;;;;5095173;28;20102;-65
2023/08/21 02:50:49;;;;;;;;;;;21.60;70.80;;;;;;5094052;28;19920;-65
2023/08/21 02:53:15;;;;;;;;;;;21.60;70.80;;;;;;5093696;28;20406;-65
2023/08/21 02:55:40;;;;;;;;;;;21.60;71.50;;;;;;5093735;28;19924;-65
2023/08/21 02:58:06;;;;;;;;;;;21.60;70.70;;;;;;5093898;28;19935;-65
2023/08/21 03:00:31;;;;;;;;;;;21.60;70.70;;;;;;5094840;28;19963;-66
2023/08/21 03:02:56;;;;;;;;;;;21.60;70.70;;;;;;5093732;28;20007;-65
2023/08/21 03:05:22;;;;;;;;;;;21.60;70.70;;;;;;5093472;28;20407;-65
2023/08/21 03:07:47;;;;;;;;;;;21.60;70.70;;;;;;5094327;28;19967;-65
2023/08/21 03:10:13;;;;;;;;;;;21.60;70.70;;;;;;5093698;28;19928;-65
2023/08/21 03:12:38;;;;;;;;;;;21.50;70.60;;;;;;5094578;28;19920;-69
2023/08/21 03:15:04;;;;;;;;;;;21.60;70.70;;;;;;5105196;28;20412;-65
2023/08/21 03:17:30;;;;;;;;;;;21.60;70.60;;;;;;5096559;28;19920;-65
2023/08/21 03:19:55;;;;;;;;;;;21.60;70.60;;;;;;5096595;28;20006;-64
2023/08/21 03:22:21;;;;;;;;;;;21.50;70.60;;;;;;5096919;28;19927;-65
2023/08/21 03:24:46;;;;;;;;;;;21.50;70.60;;;;;;5114748;28;19928;-69
2023/08/21 03:27:14;;;;;;;;;;;21.50;70.50;;;;;;5114717;28;19946;-65
2023/08/21 03:29:40;;;;;;;;;;;21.50;70.50;;;;;;5096280;28;19920;-65
2023/08/21 03:32:05;;;;;;;;;;;21.50;70.50;;;;;;5114859;28;20333;-65
2023/08/21 03:34:31;;;;;;;;;;;21.50;70.50;;;;;;5114529;28;19939;-65
2023/08/21 03:36:56;;;;;;;;;;;21.50;70.40;;;;;;5096651;28;20014;-65
2023/08/21 03:39:22;;;;;;;;;;;21.50;70.50;;;;;;5114432;28;20371;-65
2023/08/21 03:41:47;;;;;;;;;;;21.50;70.40;;;;;;5096542;28;19959;-64
2023/08/21 03:44:13;;;;;;;;;;;21.50;70.40;;;;;;5096054;28;19919;-65
2023/08/21 03:46:39;;;;;;;;;;;21.50;70.40;;;;;;5096386;28;19928;-69
2023/08/21 03:49:04;;;;;;;;;;;21.50;70.40;;;;;;5096031;28;20358;-65
2023/08/21 03:51:30;;;;;;;;;;;21.50;70.40;;;;;;5114402;28;20007;-65
2023/08/21 03:53:55;;;;;;;;;;;21.50;70.40;;;;;;5095896;28;19923;-65
2023/08/21 03:56:21;;;;;;;;;;;21.50;70.30;;;;;;5114512;28;19924;-67
2023/08/21 03:58:48;;;;;;;;;;;21.50;70.30;;;;;;5095872;28;19966;-67
2023/08/21 04:01:13;;;;;;;;;;;21.50;70.30;;;;;;5095973;28;19926;-67
2023/08/21 04:03:39;;;;;;;;;;;21.50;70.30;;;;;;5113920;28;19920;-64
2023/08/21 04:06:04;;;;;;;;;;;21.40;70.30;;;;;;5113983;28;20458;-65
2023/08/21 04:08:30;;;;;;;;;;;21.40;70.30;;;;;;5113911;28;19920;-65
2023/08/21 04:10:59;;;;;;;;;;;21.40;70.30;;;;;;5095147;28;19931;-65
2023/08/21 04:13:25;;;;;;;;;;;21.40;70.20;;;;;;5095644;28;19996;-65
2023/08/21 04:15:53;;;;;;;;;;;21.40;70.20;;;;;;5113362;28;19974;-65
2023/08/21 04:18:19;;;;;;;;;;;21.40;70.20;;;;;;5113943;28;19930;-65
2023/08/21 04:20:44;;;;;;;;;;;21.40;70.20;;;;;;5094882;28;20305;-65
2023/08/21 04:23:10;;;;;;;;;;;21.40;70.20;;;;;;5113699;28;19927;-65
2023/08/21 04:25:35;;;;;;;;;;;21.40;70.20;;;;;;5095651;28;20500;-65
2023/08/21 04:28:01;;;;;;;;;;;21.40;70.10;;;;;;5113612;28;20097;-65
2023/08/21 04:30:26;;;;;;;;;;;21.40;70.90;;;;;;5095211;28;19919;-69
2023/08/21 04:32:52;;;;;;;;;;;21.40;70.10;;;;;;5095169;28;20002;-65
2023/08/21 04:35:17;;;;;;;;;;;21.40;70.10;;;;;;5095231;28;19924;-65
2023/08/21 04:37:44;;;;;;;;;;;21.40;70.10;;;;;;5095170;28;20375;-65
2023/08/21 04:40:10;;;;;;;;;;;21.30;70.00;;;;;;5113446;28;20015;-66
2023/08/21 04:42:35;;;;;;;;;;;21.40;70.10;;;;;;5095502;28;19955;-65
2023/08/21 04:45:02;;;;;;;;;;;21.40;70.00;;;;;;5113284;28;19963;-65
2023/08/21 04:47:28;;;;;;;;;;;21.30;70.00;;;;;;5095248;28;19935;-65
2023/08/21 04:49:53;;;;;;;;;;;21.40;70.00;;;;;;5113254;28;19926;-66
2023/08/21 04:52:19;;;;;;;;;;;21.30;70.00;;;;;;5095140;28;20005;-65
2023/08/21 04:54:45;;;;;;;;;;;21.30;70.00;;;;;;5113064;28;20413;-65
2023/08/21 04:57:11;;;;;;;;;;;21.30;70.00;;;;;;5113175;28;19926;-65
2023/08/21 04:59:37;;;;;;;;;;;21.30;70.00;;;;;;5095420;28;19923;-70
2023/08/21 05:02:03;;;;;;;;;;;21.30;70.00;;;;;;5094952;28;19942;-70
2023/08/21 05:04:28;;;;;;;;;;;21.30;70.00;;;;;;5129479;27;20414;-65
2023/08/21 05:06:54;;;;;;;;;;;21.30;70.10;;;;;;5113083;28;20284;-65
2023/08/21 05:09:19;;;;;;;;;;;21.30;70.10;;;;;;5094766;28;19972;-65
2023/08/21 05:11:45;;;;;;;;;;;21.30;70.10;;;;;;5095130;28;20000;-65
2023/08/21 05:14:10;;;;;;;;;;;21.30;70.80;;;;;;5094464;28;19924;-65
2023/08/21 05:16:36;;;;;;;;;;;21.30;70.10;;;;;;5094412;28;19934;-65
2023/08/21 05:19:01;;;;;;;;;;;21.20;70.10;;;;;;5094484;28;19923;-65
2023/08/21 05:21:27;;;;;;;;;;;21.20;70.10;;;;;;5094847;28;19920;-65
2023/08/21 05:23:52;;;;;;;;;;;21.20;70.10;;;;;;5094615;28;19926;-65
2023/08/21 05:26:18;;;;;;;;;;;21.20;70.10;;;;;;5112785;28;19919;-69
2023/08/21 05:28:44;;;;;;;;;;;21.20;70.20;;;;;;5112762;28;20383;-65
2023/08/21 05:31:09;;;;;;;;;;;21.20;70.20;;;;;;5095398;28;19963;-65
2023/08/21 05:33:35;;;;;;;;;;;21.20;70.20;;;;;;5116846;28;19920;-65
2023/08/21 05:36:00;;;;;;;;;;;21.20;70.20;;;;;;5132792;27;19931;-65
2023/08/21 05:38:26;;;;;;;;;;;21.20;70.20;;;;;;5116951;28;19928;-65
2023/08/21 05:40:51;;;;;;;;;;;21.10;70.20;;;;;;5133081;27;19920;-65
2023/08/21 05:43:17;;;;;;;;;;;21.10;70.30;;;;;;5098342;28;20329;-65
2023/08/21 05:45:43;;;;;;;;;;;21.20;70.30;;;;;;5098491;28;20014;-69
2023/08/21 05:48:08;;;;;;;;;;;21.10;70.30;;;;;;5116447;28;19920;-65
2023/08/21 05:50:36;;;;;;;;;;;21.10;70.30;;;;;;5098549;28;19920;-65
2023/08/21 05:53:03;;;;;;;;;;;21.10;70.30;;;;;;5098492;28;19981;-65
2023/08/21 05:55:29;;;;;;;;;;;21.10;70.30;;;;;;5132466;27;19924;-65
2023/08/21 05:57:54;;;;;;;;;;;21.10;70.30;;;;;;5098117;28;20382;-65
2023/08/21 06:00:20;;;;;;;;;;;21.10;70.30;;;;;;5116423;28;19927;-65
2023/08/21 06:02:45;;;;;;;;;;;21.10;70.40;;;;;;5098301;28;19930;-65
2023/08/21 06:05:11;;;;;;;;;;;21.10;70.40;;;;;;5098347;28;19927;-65
2023/08/21 06:07:36;;;;;;;;;;;21.10;70.40;;;;;;5098211;28;19920;-65
2023/08/21 06:10:02;;;;;;;;;;;21.10;70.40;;;;;;5116377;28;19920;-65
2023/08/21 06:12:28;;;;;;;;;;;21.10;70.40;;;;;;5116211;28;19919;-65
2023/08/21 06:14:53;;;;;;;;;;;21.10;70.40;;;;;;5097773;28;20482;-65
2023/08/21 06:17:19;;;;;;;;;;;21.10;70.40;;;;;;5098099;28;19966;-69
2023/08/21 06:19:44;;;;;;;;;;;21.10;70.40;;;;;;5097903;28;20290;-66
2023/08/21 06:22:10;;;;;;;;;;;21.10;70.50;;;;;;5098049;28;20351;-65
2023/08/21 06:24:35;;;;;;;;;;;21.10;70.40;;;;;;5097652;28;19946;-65
2023/08/21 06:27:01;;;;;;;;;;;21.10;70.50;;;;;;5097905;28;19955;-65
2023/08/21 06:29:27;;;;;;;;;;;21.10;70.50;;;;;;5097559;28;19943;-65
2023/08/21 06:31:52;;;;;;;;;;;21.10;70.50;;;;;;5115878;28;19920;-66
2023/08/21 06:34:17;;;;;;;;;;;21.10;70.50;;;;;;5097738;28;19943;-65
2023/08/21 06:36:43;;;;;;;;;;;21.10;70.50;;;;;;5114867;28;19924;-65
2023/08/21 06:39:09;;;;;;;;;;;21.10;70.50;;;;;;5097336;28;20408;-65
2023/08/21 06:41:34;;;;;;;;;;;21.10;70.50;;;;;;5097453;28;19920;-65
2023/08/21 06:44:00;;;;;;;;;;;21.10;70.50;;;;;;5096853;28;20019;-65
2023/08/21 06:46:25;;;;;;;;;;;21.10;70.60;;;;;;5097281;28;19925;-69
2023/08/21 06:48:51;;;;;;;;;;;21.10;70.60;;;;;;5097622;28;19927;-65
2023/08/21 06:51:16;;;;;;;;;;;21.10;70.60;;;;;;5097002;28;20361;-65
2023/08/21 06:53:42;;;;;;;;;;;21.10;70.60;;;;;;5097496;28;19919;-65
2023/08/21 06:56:07;;;;;;;;;;;21.10;70.60;;;;;;5096268;28;19923;-65
2023/08/21 06:58:33;;;;;;;;;;;21.10;70.60;;;;;;5097344;28;20320;-65
2023/08/21 07:00:59;;;;;;;;;;;21.10;70.60;;;;;;5096902;28;20374;-65
2023/08/21 07:03:25;;;;;;;;;;;21.10;70.60;;;;;;5097191;28;19945;-65
2023/08/21 07:05:55;;;;;;;;;;;21.20;70.70;;;;;;5130964;27;19920;-65
2023/08/21 07:08:21;;;;;;;;;;;21.20;70.70;;;;;;5097129;28;19959;-65
2023/08/21 07:10:46;;;;;;;;;;;21.10;70.60;;;;;;5131349;27;19971;-65
2023/08/21 07:13:11;;;;;;;;;;;21.10;70.60;;;;;;5096882;28;20285;-65
2023/08/21 07:15:37;;;;;;;;;;;21.10;70.60;;;;;;5113917;28;19924;-65
2023/08/21 07:18:03;;;;;;;;;;;21.20;70.70;;;;;;5096911;28;20382;-65
2023/08/21 07:20:28;;;;;;;;;;;21.20;71.40;;;;;;5114818;28;19965;-64
2023/08/21 07:22:54;;;;;;;;;;;21.20;70.70;;;;;;5115281;28;19994;-65
2023/08/21 07:25:19;;;;;;;;;;;21.20;70.70;;;;;;5114805;28;19988;-65
2023/08/21 07:27:45;;;;;;;;;;;21.20;70.70;;;;;;5096473;28;20380;-65
2023/08/21 07:30:10;;;;;;;;;;;21.20;70.70;;;;;;5114871;28;19927;-69
2023/08/21 07:32:36;;;;;;;;;;;21.20;70.70;;;;;;5096596;28;20057;-65
2023/08/21 07:35:02;;;;;;;;;;;21.20;70.70;;;;;;5096360;28;19949;-65
2023/08/21 07:37:27;;;;;;;;;;;21.20;70.70;;;;;;5096585;28;19924;-65
2023/08/21 07:39:53;;;;;;;;;;;21.20;70.70;;;;;;5096302;28;19923;-65
2023/08/21 07:42:18;;;;;;;;;;;21.20;70.70;;;;;;5114454;28;19920;-65
2023/08/21 07:44:44;;;;;;;;;;;21.20;70.70;;;;;;5096155;28;19965;-69
2023/08/21 07:47:10;;;;;;;;;;;21.20;70.70;;;;;;5096426;28;20002;-65
2023/08/21 07:49:35;;;;;;;;;;;21.20;70.70;;;;;;5096101;28;19924;-65
2023/08/21 07:52:02;;;;;;;;;;;21.30;70.80;;;;;;5114251;28;20272;-65
2023/08/21 07:54:28;;;;;;;;;;;21.20;70.70;;;;;;5095022;28;19926;-65
2023/08/21 07:56:53;;;;;;;;;;;21.30;70.70;;;;;;5095653;28;19923;-69
2023/08/21 07:59:19;;;;;;;;;;;21.20;70.70;;;;;;5096112;28;19980;-65
2023/08/21 08:01:45;;;;;;;;;;;21.20;70.70;;;;;;5096062;28;19919;-65
2023/08/21 08:04:11;;;;;;;;;;;21.20;70.70;;;;;;5114149;28;19972;-65
2023/08/21 08:06:36;;;;;;;;;;;21.20;71.40;;;;;;5113948;28;19920;-65
2023/08/21 08:09:03;;;;;;;;;;;21.30;70.80;;;;;;5129699;27;19920;-65
2023/08/21 08:11:29;;;;;;;;;;;21.30;70.80;;;;;;5130142;27;20378;-65
2023/08/21 08:13:55;;;;;;;;;;;21.30;70.80;;;;;;5129760;27;19927;-66
2023/08/21 08:16:20;;;;;;;;;;;21.30;70.80;;;;;;5095399;28;20421;-65
2023/08/21 08:18:46;;;;;;;;;;;21.30;70.70;;;;;;5095769;28;19924;-65
2023/08/21 08:21:11;;;;;;;;;;;21.30;70.80;;;;;;5095537;28;20007;-65
2023/08/21 08:23:37;;;;;;;;;;;21.30;70.80;;;;;;5095662;28;19965;-65
2023/08/21 08:26:02;;;;;;;;;;;21.30;70.70;;;;;;5095440;28;19919;-66
2023/08/21 08:28:28;;;;;;;;;;;21.30;70.70;;;;;;5095470;28;19965;-65
2023/08/21 08:30:54;;;;;;;;;;;21.30;70.70;;;;;;5113750;28;19955;-69
2023/08/21 08:33:19;;;;;;;;;;;21.40;70.80;;;;;;5113553;28;19920;-66
2023/08/21 08:35:45;;;;;;;;;;;21.30;70.70;;;;;;5095326;28;19924;-65
2023/08/21 08:38:10;;;;;;;;;;;21.30;70.70;;;;;;5095131;28;19945;-65
2023/08/21 08:40:42;;;;;;;;;;;21.30;70.70;;;;;;5095374;28;19928;-65
2023/08/21 08:43:08;;;;;;;;;;;21.30;70.70;;;;;;5095281;28;19920;-65
2023/08/21 08:45:34;;;;;;;;;;;21.30;70.70;;;;;;5113322;28;20461;-65
2023/08/21 08:48:01;;;;;;;;;;;21.30;70.60;;;;;;5113363;28;19928;-65
2023/08/21 08:50:29;;;;;;;;;;;21.30;70.60;;;;;;5113250;28;19924;-65
2023/08/21 08:52:55;;;;;;;;;;;21.30;70.70;;;;;;5113170;28;19945;-65
2023/08/21 08:55:21;;;;;;;;;;;21.30;70.60;;;;;;5094932;28;19928;-65
2023/08/21 08:57:46;;;;;;;;;;;21.30;70.50;;;;;;5095179;28;19920;-65
2023/08/21 09:00:12;;;;;;;;;;;21.40;70.50;;;;;;5128928;27;19920;-65
2023/08/21 09:02:37;;;;;;;;;;;21.30;70.40;;;;;;5094679;28;19919;-65
2023/08/21 09:05:04;;;;;;;;;;;21.30;70.40;;;;;;5095042;28;19959;-65
2023/08/21 09:07:29;;;;;;;;;;;21.40;70.40;;;;;;5094743;28;19919;-65
2023/08/21 09:09:55;;;;;;;;;;;21.30;70.40;;;;;;5113326;28;20395;-65
2023/08/21 09:12:21;;;;;;;;;;;21.40;70.40;;;;;;5094933;28;20019;-65
2023/08/21 09:14:46;;;;;;;;;;;21.40;70.40;;;;;;5094415;28;19931;-65
2023/08/21 09:17:14;;;;;;;;;;;21.40;70.40;;;;;;5112304;28;21287;-65
2023/08/21 09:19:39;;;;;;;;;;;21.40;70.40;;;;;;5112759;28;19919;-65
2023/08/21 09:22:09;;;;;;;;;;;21.40;70.30;;;;;;5094522;28;19981;-65
2023/08/21 09:24:35;;;;;;;;;;;21.40;70.30;;;;;;5112659;28;19927;-65
2023/08/21 09:27:01;;;;;;;;;;;21.40;70.30;;;;;;5094854;28;20352;-65
2023/08/21 09:29:27;;;;;;;;;;;21.40;70.30;;;;;;5112696;28;20010;-65
2023/08/21 09:31:55;;;;;;;;;;;21.40;70.20;;;;;;5112864;28;19970;-65
2023/08/21 09:34:21;;;;;;;;;;;21.40;70.20;;;;;;5112724;28;20294;-65
2023/08/21 09:36:53;;;;;;;;;;;21.40;70.20;;;;;;5094347;28;19931;-65
2023/08/21 09:39:19;;;;;;;;;;;21.40;70.20;;;;;;5094723;28;19927;-65
2023/08/21 09:41:54;;;;;;;;;;;21.40;70.20;;;;;;5094686;28;20279;-65
2023/08/21 09:44:19;;;;;;;;;;;21.40;70.90;;;;;;5094696;28;19945;-65
2023/08/21 09:46:47;;;;;;;;;;;21.40;70.10;;;;;;5112688;28;19920;-65
2023/08/21 09:49:14;;;;;;;;;;;21.50;70.20;;;;;;5094338;28;19919;-65
2023/08/21 09:51:39;;;;;;;;;;;21.50;70.20;;;;;;5094423;28;20371;-65
2023/08/21 09:54:06;;;;;;;;;;;21.50;70.10;;;;;;5112483;28;19926;-65
2023/08/21 09:56:31;;;;;;;;;;;21.50;70.00;;;;;;5094167;28;19923;-65
2023/08/21 09:58:57;;;;;;;;;;;21.50;70.00;;;;;;5112583;28;19934;-65
2023/08/21 10:01:23;;;;;;;;;;;21.50;70.00;;;;;;5094424;28;19943;-65
2023/08/21 10:03:49;;;;;;;;;;;21.50;70.00;;;;;;5112354;28;20269;-65
2023/08/21 10:06:18;;;;;;;;;;;21.60;70.00;;;;;;5112344;28;19963;-65
2023/08/21 10:08:45;;;;;;;;;;;21.60;70.00;;;;;;5094394;28;19924;-65
2023/08/21 10:11:11;;;;;;;;;;;21.60;69.90;;;;;;5094446;28;19924;-65
2023/08/21 10:13:38;;;;;;;;;;;21.60;69.90;;;;;;5112531;28;19920;-65
2023/08/21 10:16:05;;;;;;;;;;;21.60;69.80;;;;;;5093756;28;19962;-65
2023/08/21 10:18:32;;;;;;;;;;;21.60;69.80;;;;;;5095311;28;20446;-65
2023/08/21 10:21:10;;;;;;;;;;;21.60;69.80;;;;;;5097735;28;19923;-65
2023/08/21 10:23:36;;;;;;;;;;;21.60;69.80;;;;;;5116471;28;19963;-65
2023/08/21 10:26:05;;;;;;;;;;;21.60;69.80;;;;;;5132130;27;19919;-69
2023/08/21 10:28:50;;;;;;;;;;;21.60;69.80;;;;;;5097838;28;19956;-65
2023/08/21 10:31:27;;;;;;;;;;;21.60;69.80;;;;;;5115701;28;19928;-65
2023/08/21 10:33:53;;;;;;;;;;;21.60;69.80;;;;;;5097832;28;19959;-65
2023/08/21 10:36:39;;;;;;;;;;;21.60;69.70;;;;;;5115949;28;19974;-65
2023/08/21 10:39:12;;;;;;;;;;;21.70;69.80;;;;;;5097550;28;20041;-65
2023/08/21 10:41:37;;;;;;;;;;;21.60;69.70;;;;;;5131507;27;20032;-65
2023/08/21 10:44:05;;;;;;;;;;;21.60;69.70;;;;;;5131835;27;20014;-65
2023/08/21 10:46:49;;;;;;;;;;;21.60;69.70;;;;;;5097221;28;19966;-65
2023/08/21 10:49:14;;;;;;;;;;;21.70;69.80;;;;;;5097249;28;19927;-65
2023/08/21 10:51:41;;;;;;;;;;;21.60;69.80;;;;;;5097466;28;19924;-65
2023/08/21 10:54:14;;;;;;;;;;;21.70;69.80;;;;;;5115391;28;19924;-69
2023/08/21 10:56:39;;;;;;;;;;;21.70;69.80;;;;;;5097049;28;20403;-65
2023/08/21 10:59:05;;;;;;;;;;;21.70;69.80;;;;;;5131088;27;19919;-65
2023/08/21 11:01:42;;;;;;;;;;;21.60;69.70;;;;;;5096949;28;20018;-65
2023/08/21 11:04:08;;;;;;;;;;;21.60;69.80;;;;;;5097200;28;20007;-65
2023/08/21 11:06:33;;;;;;;;;;;21.70;69.80;;;;;;5097260;28;20014;-65
2023/08/21 11:08:58;;;;;;;;;;;21.70;69.80;;;;;;5097189;28;19924;-65
2023/08/21 11:11:24;;;;;;;;;;;21.70;69.80;;;;;;5115624;28;19920;-65
2023/08/21 11:13:53;;;;;;;;;;;21.70;69.80;;;;;;5114063;28;19920;-65
2023/08/21 11:16:19;;;;;;;;;;;21.60;69.80;;;;;;5096921;28;19930;-68
2023/08/21 11:18:44;;;;;;;;;;;21.60;69.70;;;;;;5096848;28;19919;-65
2023/08/21 11:21:11;;;;;;;;;;;21.60;69.80;;;;;;5114975;28;19923;-65
2023/08/21 11:23:37;;;;;;;;;;;21.70;69.80;;;;;;5096547;28;20408;-65
2023/08/21 11:26:03;;;;;;;;;;;21.60;69.70;;;;;;5096850;28;19920;-69
2023/08/21 11:28:29;;;;;;;;;;;21.70;69.80;;;;;;5114563;28;19927;-65
2023/08/21 11:30:55;;;;;;;;;;;21.70;69.80;;;;;;5114849;28;19919;-66
2023/08/21 11:33:21;;;;;;;;;;;21.70;69.90;;;;;;5114658;28;19951;-65
2023/08/21 11:35:47;;;;;;;;;;;21.70;69.90;;;;;;5114720;28;19924;-65
2023/08/21 11:38:16;;;;;;;;;;;21.70;69.90;;;;;;5096599;28;19920;-65
2023/08/21 11:40:42;;;;;;;;;;;21.60;69.80;;;;;;5096252;28;19920;-68
2023/08/21 11:43:09;;;;;;;;;;;21.70;69.90;;;;;;5114516;28;19919;-65
2023/08/21 11:45:34;;;;;;;;;;;21.60;69.80;;;;;;5096426;28;19920;-69
2023/08/21 11:48:00;;;;;;;;;;;21.70;69.90;;;;;;5114450;28;19934;-65
2023/08/21 11:50:27;;;;;;;;;;;21.70;69.90;;;;;;5114464;28;20014;-65
2023/08/21 11:52:52;;;;;;;;;;;21.60;69.80;;;;;;5114364;28;19926;-65
2023/08/21 11:55:18;;;;;;;;;;;21.60;69.90;;;;;;5096142;28;20338;-65
2023/08/21 11:57:46;;;;;;;;;;;21.70;69.90;;;;;;5096001;28;20567;-65
2023/08/21 12:00:12;;;;;;;;;;;21.70;69.90;;;;;;5096114;28;20363;-66
2023/08/21 12:02:37;;;;;;;;;;;21.70;69.90;;;;;;5114381;28;20434;-65
2023/08/21 12:05:05;;;;;;;;;;;21.70;69.90;;;;;;5095804;28;20002;-65
2023/08/21 12:07:30;;;;;;;;;;;21.70;69.90;;;;;;5095792;28;19973;-65
2023/08/21 12:09:56;;;;;;;;;;;21.70;69.90;;;;;;5096018;28;19923;-65
2023/08/21 12:12:22;;;;;;;;;;;21.70;69.90;;;;;;5095671;28;19985;-65
2023/08/21 12:14:48;;;;;;;;;;;21.70;69.90;;;;;;5095421;28;20332;-68
2023/08/21 12:17:13;;;;;;;;;;;21.70;70.00;;;;;;5095580;28;19927;-66
2023/08/21 12:19:39;;;;;;;;;;;21.70;70.00;;;;;;5095862;28;19920;-65
2023/08/21 12:22:04;;;;;;;;;;;21.70;70.00;;;;;;5095779;28;20370;-65
2023/08/21 12:24:30;;;;;;;;;;;21.70;70.00;;;;;;5095470;28;20282;-65
2023/08/21 12:26:56;;;;;;;;;;;21.70;70.00;;;;;;5113598;28;19967;-68
2023/08/21 12:29:22;;;;;;;;;;;21.70;69.90;;;;;;5094563;28;19926;-65
2023/08/21 12:31:47;;;;;;;;;;;21.70;70.00;;;;;;5095576;28;20274;-65
2023/08/21 12:34:13;;;;;;;;;;;21.70;70.00;;;;;;5095648;28;19919;-65
2023/08/21 12:36:39;;;;;;;;;;;21.70;70.00;;;;;;5095103;28;19962;-65
2023/08/21 12:39:05;;;;;;;;;;;21.70;70.00;;;;;;5113575;28;19923;-65
2023/08/21 12:41:30;;;;;;;;;;;21.70;70.00;;;;;;5112770;28;19981;-65
2023/08/21 12:43:56;;;;;;;;;;;21.70;70.00;;;;;;5095308;28;19973;-65
2023/08/21 12:46:21;;;;;;;;;;;21.70;70.00;;;;;;5095359;28;19920;-65
2023/08/21 12:48:47;;;;;;;;;;;21.70;70.00;;;;;;5113477;28;20352;-65
2023/08/21 12:51:13;;;;;;;;;;;21.80;70.00;;;;;;5113323;28;20003;-68
2023/08/21 12:53:38;;;;;;;;;;;21.70;70.00;;;;;;5094953;28;19919;-65
2023/08/21 12:56:04;;;;;;;;;;;21.70;70.00;;;;;;5094893;28;19919;-65
2023/08/21 12:58:30;;;;;;;;;;;21.70;70.00;;;;;;5113200;28;20018;-65
2023/08/21 13:00:55;;;;;;;;;;;21.70;70.00;;;;;;5095098;28;19972;-65
2023/08/21 13:03:21;;;;;;;;;;;21.80;70.00;;;;;;5095006;28;20027;-65
2023/08/21 13:05:46;;;;;;;;;;;21.70;70.00;;;;;;5095052;28;20362;-65
2023/08/21 13:08:11;;;;;;;;;;;21.80;70.00;;;;;;5094972;28;19927;-68
2023/08/21 13:10:37;;;;;;;;;;;21.80;70.10;;;;;;5129164;27;19926;-65
2023/08/21 13:13:03;;;;;;;;;;;21.70;70.00;;;;;;5112918;28;20442;-65
2023/08/21 13:15:28;;;;;;;;;;;21.80;70.10;;;;;;5128530;27;19931;-65
2023/08/21 13:17:54;;;;;;;;;;;21.80;70.00;;;;;;5113034;28;19926;-65
2023/08/21 13:20:20;;;;;;;;;;;21.80;70.10;;;;;;5094886;28;19943;-65
2023/08/21 13:22:50;;;;;;;;;;;21.80;70.10;;;;;;5112903;28;20360;-65
2023/08/21 13:25:18;;;;;;;;;;;21.80;70.10;;;;;;5112756;28;20026;-66
2023/08/21 13:27:43;;;;;;;;;;;21.80;70.10;;;;;;5094720;28;19920;-66
2023/08/21 13:30:09;;;;;;;;;;;21.80;70.10;;;;;;5128622;28;19935;-65
2023/08/21 13:32:35;;;;;;;;;;;21.80;70.10;;;;;;5112587;28;19919;-65
2023/08/21 13:35:00;;;;;;;;;;;21.80;70.10;;;;;;5112857;28;19919;-65
2023/08/21 13:37:27;;;;;;;;;;;21.90;70.10;;;;;;5077723;28;19951;-65
2023/08/21 13:39:54;;;;;;;;;;;21.90;70.10;;;;;;5112795;28;20283;-64
2023/08/21 13:42:20;;;;;;;;;;;21.90;70.10;;;;;;5094685;28;20286;-65
2023/08/21 13:44:45;;;;;;;;;;;21.90;70.10;;;;;;5112535;28;20006;-65
2023/08/21 13:47:11;;;;;;;;;;;21.90;70.10;;;;;;5094641;28;20290;-65
2023/08/21 13:49:37;;;;;;;;;;;21.90;70.10;;;;;;5094284;28;20003;-65
2023/08/21 13:52:03;;;;;;;;;;;21.90;70.10;;;;;;5095312;28;19920;-65
2023/08/21 13:54:29;;;;;;;;;;;21.80;70.10;;;;;;5116654;28;19927;-65
2023/08/21 13:56:54;;;;;;;;;;;21.80;70.10;;;;;;5098215;28;19924;-65
2023/08/21 13:59:20;;;;;;;;;;;21.90;70.10;;;;;;5097929;28;20358;-65
2023/08/21 14:01:45;;;;;;;;;;;21.90;70.10;;;;;;5116251;28;19927;-65
2023/08/21 14:04:11;;;;;;;;;;;21.90;70.10;;;;;;5116361;28;20388;-65
2023/08/21 14:06:36;;;;;;;;;;;21.90;70.10;;;;;;5116373;28;19927;-65
2023/08/21 14:09:02;;;;;;;;;;;22.00;70.20;;;;;;5098324;28;19926;-65